createdAt,value
2019-05-14T00:00:26.171Z,9.93
2019-05-14T00:01:26.161Z,9.87
2019-05-14T00:02:28.835Z,9.89
2019-05-14T00:03:26.169Z,9.87
2019-05-14T00:04:26.185Z,9.86
2019-05-14T00:05:26.195Z,9.86
2019-05-14T00:06:26.207Z,9.79
2019-05-14T00:07:27.611Z,9.81
2019-05-14T00:08:26.564Z,9.90
2019-05-14T00:09:26.245Z,9.84
2019-05-14T00:11:26.463Z,9.84
2019-05-14T00:12:26.281Z,9.78
2019-05-14T00:13:26.311Z,9.81
2019-05-14T00:14:38.759Z,9.81
2019-05-14T00:15:26.323Z,9.72
2019-05-14T00:16:26.334Z,9.71
2019-05-14T00:17:26.365Z,9.71
2019-05-14T00:18:26.667Z,9.71
2019-05-14T00:19:26.653Z,9.74
2019-05-14T00:20:26.433Z,9.69
2019-05-14T00:21:26.409Z,9.75
2019-05-14T00:22:26.437Z,9.71
2019-05-14T00:23:26.440Z,9.75
2019-05-14T00:24:26.554Z,9.71
2019-05-14T00:25:26.460Z,9.64
2019-05-14T00:26:26.480Z,9.64
2019-05-14T00:27:26.491Z,9.61
2019-05-14T00:28:26.514Z,9.56
2019-05-14T00:29:26.527Z,9.53
2019-05-14T00:30:26.549Z,9.54
2019-05-14T00:31:26.642Z,9.56
2019-05-14T00:32:26.658Z,9.57
2019-05-14T00:33:26.575Z,9.58
2019-05-14T00:34:26.593Z,9.56
2019-05-14T00:35:26.600Z,9.58
2019-05-14T00:36:26.610Z,9.53
2019-05-14T00:37:26.739Z,9.50
2019-05-14T00:38:26.651Z,9.54
2019-05-14T00:39:26.654Z,9.48
2019-05-14T00:40:26.681Z,9.54
2019-05-14T00:41:26.685Z,9.51
2019-05-14T00:42:26.709Z,9.53
2019-05-14T00:43:26.707Z,9.54
2019-05-14T00:44:26.788Z,9.46
2019-05-14T00:45:26.902Z,9.47
2019-05-14T00:46:26.805Z,9.47
2019-05-14T00:47:26.763Z,9.43
2019-05-14T00:48:26.779Z,9.38
2019-05-14T00:49:26.790Z,9.32
2019-05-14T00:50:26.915Z,9.26
2019-05-14T00:51:26.823Z,9.28
2019-05-14T00:52:26.952Z,9.23
2019-05-14T00:53:26.882Z,9.26
2019-05-14T00:54:26.873Z,9.36
2019-05-14T00:55:27.031Z,9.40
2019-05-14T00:56:26.888Z,9.38
2019-05-14T00:57:26.905Z,9.38
2019-05-14T00:58:27.052Z,9.33
2019-05-14T00:59:27.065Z,9.33
2019-05-14T01:00:26.944Z,9.33
2019-05-14T01:01:26.960Z,9.24
2019-05-14T01:02:26.998Z,9.23
2019-05-14T01:03:26.988Z,9.24
2019-05-14T01:04:27.122Z,9.10
2019-05-14T01:05:27.023Z,9.20
2019-05-14T01:06:27.027Z,9.17
2019-05-14T01:07:27.047Z,9.11
2019-05-14T01:08:27.058Z,9.08
2019-05-14T01:09:27.092Z,9.05
2019-05-14T01:10:27.088Z,9.11
2019-05-14T01:11:27.094Z,9.11
2019-05-14T01:12:27.191Z,9.10
2019-05-14T01:13:27.125Z,8.96
2019-05-14T01:14:27.145Z,8.89
2019-05-14T01:15:27.157Z,8.83
2019-05-14T01:16:27.168Z,8.81
2019-05-14T01:17:27.192Z,8.92
2019-05-14T01:18:27.193Z,9.01
2019-05-14T01:19:27.214Z,9.01
2019-05-14T01:20:27.233Z,9.01
2019-05-14T01:21:27.475Z,8.95
2019-05-14T01:22:27.283Z,9.05
2019-05-14T01:23:27.265Z,9.05
2019-05-14T01:24:27.275Z,9.10
2019-05-14T01:25:27.297Z,9.01
2019-05-14T01:26:27.308Z,8.86
2019-05-14T01:27:27.368Z,8.96
2019-05-14T01:28:27.352Z,8.95
2019-05-14T01:29:27.373Z,8.96
2019-05-14T01:30:27.369Z,9.01
2019-05-14T01:31:27.419Z,8.94
2019-05-14T01:32:27.487Z,9.05
2019-05-14T01:33:27.418Z,8.95
2019-05-14T01:34:27.413Z,8.99
2019-05-14T01:35:27.429Z,8.98
2019-05-14T01:36:27.444Z,8.98
2019-05-14T01:37:27.455Z,8.87
2019-05-14T01:38:27.494Z,8.84
2019-05-14T01:39:27.515Z,8.83
2019-05-14T01:40:27.498Z,8.80
2019-05-14T01:41:27.530Z,8.84
2019-05-14T01:42:27.620Z,8.80
2019-05-14T01:43:27.535Z,8.79
2019-05-14T01:44:27.549Z,8.74
2019-05-14T01:45:28.461Z,8.80
2019-05-14T01:46:27.575Z,8.81
2019-05-14T01:47:27.597Z,8.73
2019-05-14T01:48:27.601Z,8.77
2019-05-14T01:49:27.616Z,8.76
2019-05-14T01:50:27.631Z,8.68
2019-05-14T01:51:27.657Z,8.68
2019-05-14T01:52:27.662Z,8.74
2019-05-14T01:53:27.679Z,8.70
2019-05-14T01:54:27.708Z,8.68
2019-05-14T01:55:27.816Z,8.62
2019-05-14T01:56:27.785Z,8.65
2019-05-14T01:57:27.757Z,8.58
2019-05-14T01:58:27.746Z,8.63
2019-05-14T01:59:27.758Z,8.68
2019-05-14T02:00:27.770Z,8.61
2019-05-14T02:01:27.783Z,8.65
2019-05-14T02:02:27.802Z,8.61
2019-05-14T02:03:27.805Z,8.58
2019-05-14T02:04:27.819Z,8.56
2019-05-14T02:05:27.842Z,8.56
2019-05-14T02:06:27.851Z,8.65
2019-05-14T02:07:27.866Z,8.63
2019-05-14T02:08:27.902Z,8.63
2019-05-14T02:09:27.889Z,8.70
2019-05-14T02:10:27.911Z,8.59
2019-05-14T02:11:27.917Z,8.68
2019-05-14T02:12:27.932Z,8.73
2019-05-14T02:13:27.955Z,8.62
2019-05-14T02:14:27.957Z,8.68
2019-05-14T02:15:37.210Z,8.58
2019-05-14T02:16:27.985Z,8.66
2019-05-14T02:17:27.996Z,8.66
2019-05-14T02:18:28.019Z,8.58
2019-05-14T02:19:28.033Z,8.66
2019-05-14T02:20:28.045Z,8.59
2019-05-14T02:21:28.050Z,8.68
2019-05-14T02:22:28.063Z,8.59
2019-05-14T02:23:28.111Z,8.50
2019-05-14T02:24:28.147Z,8.55
2019-05-14T02:25:28.145Z,8.50
2019-05-14T02:26:28.117Z,8.52
2019-05-14T02:27:28.135Z,8.48
2019-05-14T02:28:28.148Z,8.48
2019-05-14T02:29:28.201Z,8.40
2019-05-14T02:30:41.400Z,8.38
2019-05-14T02:31:29.241Z,8.33
2019-05-14T02:32:29.830Z,8.19
2019-05-14T02:33:30.658Z,8.20
2019-05-14T02:34:29.957Z,8.16
2019-05-14T02:35:29.855Z,8.23
2019-05-14T02:36:30.898Z,8.19
2019-05-14T02:37:30.142Z,8.18
2019-05-14T02:38:29.964Z,8.23
2019-05-14T02:39:29.171Z,8.15
2019-05-14T02:40:29.442Z,8.12
2019-05-14T02:41:29.967Z,8.18
2019-05-14T02:42:29.128Z,8.20
2019-05-14T02:43:29.285Z,8.22
2019-05-14T02:44:29.749Z,8.25
2019-05-14T02:45:30.374Z,8.19
2019-05-14T02:46:29.548Z,8.10
2019-05-14T02:47:29.900Z,8.07
2019-05-14T02:48:29.257Z,8.05
2019-05-14T02:49:30.094Z,8.01
2019-05-14T02:50:29.564Z,7.98
2019-05-14T02:51:30.049Z,8.04
2019-05-14T02:52:29.124Z,8.08
2019-05-14T02:53:29.740Z,8.02
2019-05-14T02:54:29.691Z,8.01
2019-05-14T02:55:29.990Z,8.00
2019-05-14T02:56:29.573Z,8.01
2019-05-14T02:57:30.370Z,7.90
2019-05-14T02:58:29.811Z,7.89
2019-05-14T02:59:30.469Z,8.01
2019-05-14T03:00:30.158Z,7.97
2019-05-14T03:01:30.207Z,7.98
2019-05-14T03:02:29.664Z,7.93
2019-05-14T03:03:29.901Z,8.00
2019-05-14T03:04:29.969Z,8.00
2019-05-14T03:05:29.479Z,7.92
2019-05-14T03:06:29.283Z,7.86
2019-05-14T03:07:29.853Z,7.89
2019-05-14T03:08:30.354Z,7.90
2019-05-14T03:09:29.569Z,8.00
2019-05-14T03:10:30.212Z,7.93
2019-05-14T03:11:29.633Z,7.92
2019-05-14T03:12:30.286Z,7.87
2019-05-14T03:13:29.597Z,7.83
2019-05-14T03:14:30.124Z,7.82
2019-05-14T03:15:29.351Z,7.83
2019-05-14T03:16:32.512Z,7.83
2019-05-14T03:17:29.957Z,7.75
2019-05-14T03:18:29.705Z,7.69
2019-05-14T03:19:29.793Z,7.74
2019-05-14T03:20:29.263Z,7.75
2019-05-14T03:21:30.390Z,7.63
2019-05-14T03:22:42.814Z,7.64
2019-05-14T03:23:30.198Z,7.63
2019-05-14T03:24:28.999Z,7.68
2019-05-14T03:25:30.032Z,7.63
2019-05-14T03:26:29.697Z,7.63
2019-05-14T03:27:30.344Z,7.63
2019-05-14T03:28:30.321Z,7.64
2019-05-14T03:29:30.702Z,7.79
2019-05-14T03:30:32.432Z,7.86
2019-05-14T03:31:33.300Z,7.83
2019-05-14T03:32:32.957Z,7.86
2019-05-14T03:33:33.384Z,7.85
2019-05-14T03:34:32.875Z,7.89
2019-05-14T03:35:40.104Z,7.89
2019-05-14T03:36:34.922Z,7.83
2019-05-14T03:37:30.926Z,7.75
2019-05-14T03:38:29.767Z,7.93
2019-05-14T03:39:29.700Z,7.89
2019-05-14T03:40:29.456Z,7.97
2019-05-14T03:41:30.574Z,7.98
2019-05-14T03:42:29.515Z,7.92
2019-05-14T03:43:29.717Z,7.98
2019-05-14T03:44:29.349Z,7.95
2019-05-14T03:45:30.103Z,7.95
2019-05-14T03:46:44.706Z,7.89
2019-05-14T03:47:29.842Z,7.90
2019-05-14T03:48:29.776Z,7.93
2019-05-14T03:49:29.223Z,7.89
2019-05-14T03:50:29.896Z,7.89
2019-05-14T03:51:29.947Z,7.90
2019-05-14T03:52:29.612Z,7.98
2019-05-14T03:53:29.770Z,8.04
2019-05-14T03:54:30.002Z,8.00
2019-05-14T03:55:29.472Z,7.97
2019-05-14T03:56:29.823Z,7.92
2019-05-14T03:57:29.434Z,7.92
2019-05-14T03:58:30.362Z,7.95
2019-05-14T03:59:29.526Z,7.90
2019-05-14T04:00:29.454Z,7.87
2019-05-14T04:01:29.913Z,7.86
2019-05-14T04:02:29.836Z,7.87
2019-05-14T04:03:29.714Z,7.83
2019-05-14T04:04:30.048Z,7.89
2019-05-14T04:05:29.588Z,7.83
2019-05-14T04:06:30.224Z,7.80
2019-05-14T04:07:30.418Z,7.75
2019-05-14T04:08:29.689Z,7.72
2019-05-14T04:09:29.529Z,7.68
2019-05-14T04:10:30.135Z,7.69
2019-05-14T04:11:29.656Z,7.74
2019-05-14T04:12:29.632Z,7.79
2019-05-14T04:13:30.427Z,7.74
2019-05-14T04:14:29.594Z,7.72
2019-05-14T04:15:29.962Z,7.74
2019-05-14T04:16:29.586Z,7.74
2019-05-14T04:17:37.051Z,7.83
2019-05-14T04:18:29.660Z,7.85
2019-05-14T04:19:29.810Z,7.89
2019-05-14T04:20:29.895Z,7.89
2019-05-14T04:21:30.124Z,7.98
2019-05-14T04:22:30.011Z,7.92
2019-05-14T04:23:29.666Z,7.90
2019-05-14T04:24:29.802Z,7.92
2019-05-14T04:25:29.761Z,7.90
2019-05-14T04:26:30.325Z,7.93
2019-05-14T04:27:30.128Z,7.98
2019-05-14T04:28:30.020Z,7.95
2019-05-14T04:29:30.808Z,7.95
2019-05-14T04:30:29.874Z,7.95
2019-05-14T04:31:29.967Z,8.01
2019-05-14T04:33:30.792Z,8.02
2019-05-14T04:34:31.128Z,8.04
2019-05-14T04:35:30.069Z,7.95
2019-05-14T04:36:30.385Z,8.02
2019-05-14T04:37:30.064Z,7.97
2019-05-14T04:38:30.319Z,8.07
2019-05-14T04:39:30.959Z,8.08
2019-05-14T04:40:29.932Z,8.16
2019-05-14T04:41:30.249Z,8.05
2019-05-14T04:42:29.973Z,8.19
2019-05-14T04:43:30.091Z,8.10
2019-05-14T04:44:30.147Z,8.10
2019-05-14T04:45:29.988Z,8.10
2019-05-14T04:47:36.083Z,8.08
2019-05-14T04:48:37.098Z,8.08
2019-05-14T04:49:30.009Z,8.07
2019-05-14T04:50:30.165Z,8.11
2019-05-14T04:51:30.549Z,8.02
2019-05-14T04:52:30.054Z,8.05
2019-05-14T04:53:31.100Z,8.08
2019-05-14T04:54:30.558Z,8.08
2019-05-14T04:55:30.110Z,8.19
2019-05-14T04:56:30.560Z,8.11
2019-05-14T04:57:30.314Z,8.12
2019-05-14T04:58:30.266Z,8.07
2019-05-14T04:59:30.272Z,8.16
2019-05-14T05:00:30.848Z,8.12
2019-05-14T05:01:30.182Z,8.12
2019-05-14T05:02:30.515Z,8.19
2019-05-14T05:03:31.272Z,8.19
2019-05-14T05:04:30.445Z,8.20
2019-05-14T05:05:30.237Z,8.28
2019-05-14T05:06:30.259Z,8.25
2019-05-14T05:07:30.247Z,8.30
2019-05-14T05:08:30.962Z,8.29
2019-05-14T05:10:30.338Z,8.37
2019-05-14T05:11:30.305Z,8.48
2019-05-14T05:12:30.326Z,8.50
2019-05-14T05:13:30.344Z,8.40
2019-05-14T05:14:30.338Z,8.37
2019-05-14T05:15:30.353Z,8.38
2019-05-14T05:16:30.369Z,8.47
2019-05-14T05:17:42.723Z,8.37
2019-05-14T05:18:31.091Z,8.36
2019-05-14T05:19:30.412Z,8.44
2019-05-14T05:20:30.509Z,8.48
2019-05-14T05:21:30.433Z,8.53
2019-05-14T05:22:30.447Z,8.55
2019-05-14T05:23:30.479Z,8.61
2019-05-14T05:24:30.515Z,8.52
2019-05-14T05:25:30.633Z,8.50
2019-05-14T05:26:30.560Z,8.52
2019-05-14T05:27:30.512Z,8.63
2019-05-14T05:28:31.355Z,8.65
2019-05-14T05:29:31.328Z,8.77
2019-05-14T05:30:31.575Z,8.68
2019-05-14T05:31:30.672Z,8.68
2019-05-14T05:32:30.636Z,8.83
2019-05-14T05:33:30.619Z,8.73
2019-05-14T05:34:31.055Z,8.86
2019-05-14T05:36:30.641Z,8.81
2019-05-14T05:37:30.813Z,8.81
2019-05-14T05:38:30.682Z,8.84
2019-05-14T05:39:30.684Z,8.83
2019-05-14T05:40:30.701Z,8.92
2019-05-14T05:41:30.711Z,8.96
2019-05-14T05:42:30.760Z,8.98
2019-05-14T05:43:30.845Z,9.04
2019-05-14T05:44:30.752Z,9.08
2019-05-14T05:45:30.817Z,9.04
2019-05-14T05:46:30.781Z,9.13
2019-05-14T05:47:30.792Z,9.17
2019-05-14T05:48:30.909Z,9.11
2019-05-14T05:49:30.931Z,9.24
2019-05-14T05:50:30.835Z,9.26
2019-05-14T05:51:30.918Z,9.35
2019-05-14T05:52:30.860Z,9.36
2019-05-14T05:53:30.874Z,9.42
2019-05-14T05:54:30.893Z,9.40
2019-05-14T05:55:30.906Z,9.36
2019-05-14T05:56:30.924Z,9.38
2019-05-14T05:57:30.950Z,9.51
2019-05-14T05:58:30.941Z,9.60
2019-05-14T05:59:30.958Z,9.58
2019-05-14T06:00:30.993Z,9.53
2019-05-14T06:01:42.182Z,9.53
2019-05-14T06:02:30.986Z,9.53
2019-05-14T06:03:31.012Z,9.50
2019-05-14T06:04:31.023Z,9.50
2019-05-14T06:05:31.135Z,9.51
2019-05-14T06:07:31.076Z,9.43
2019-05-14T06:08:31.566Z,9.42
2019-05-14T06:09:31.080Z,9.51
2019-05-14T06:10:31.108Z,9.50
2019-05-14T06:11:31.154Z,9.60
2019-05-14T06:12:31.146Z,9.50
2019-05-14T06:13:31.136Z,9.93
2019-05-14T06:14:31.152Z,10.04
2019-05-14T06:15:44.652Z,9.99
2019-05-14T06:16:31.685Z,9.93
2019-05-14T06:17:31.191Z,9.99
2019-05-14T06:18:34.292Z,9.90
2019-05-14T06:19:31.267Z,9.78
2019-05-14T06:20:31.231Z,9.78
2019-05-14T06:21:31.259Z,9.81
2019-05-14T06:22:31.260Z,9.78
2019-05-14T06:23:31.279Z,9.78
2019-05-14T06:24:31.583Z,9.74
2019-05-14T06:25:31.533Z,9.76
2019-05-14T06:26:31.326Z,9.79
2019-05-14T06:27:31.346Z,9.81
2019-05-14T06:28:33.549Z,9.87
2019-05-14T06:29:31.366Z,9.93
2019-05-14T06:30:31.384Z,9.94
2019-05-14T06:31:31.399Z,9.91
2019-05-14T06:32:31.412Z,10.04
2019-05-14T06:33:31.410Z,10.02
2019-05-14T06:34:31.430Z,9.91
2019-05-14T06:35:31.703Z,9.96
2019-05-14T06:36:31.446Z,10.04
2019-05-14T06:37:31.466Z,10.09
2019-05-14T06:38:31.481Z,10.12
2019-05-14T06:39:31.488Z,10.18
2019-05-14T06:40:31.503Z,10.32
2019-05-14T06:41:31.520Z,10.34
2019-05-14T06:42:31.531Z,10.38
2019-05-14T06:43:31.545Z,10.40
2019-05-14T06:44:31.573Z,10.42
2019-05-14T06:45:31.583Z,10.41
2019-05-14T06:46:31.895Z,10.42
2019-05-14T06:47:31.607Z,10.47
2019-05-14T06:48:34.682Z,10.48
2019-05-14T06:49:31.631Z,10.63
2019-05-14T06:50:31.649Z,10.66
2019-05-14T06:51:31.653Z,10.76
2019-05-14T06:52:31.678Z,10.73
2019-05-14T06:53:31.700Z,10.71
2019-05-14T06:54:31.717Z,10.60
2019-05-14T06:55:31.710Z,10.51
2019-05-14T06:56:31.732Z,10.52
2019-05-14T06:57:31.743Z,10.59
2019-05-14T06:58:31.754Z,10.52
2019-05-14T06:59:31.763Z,10.47
2019-05-14T07:00:31.779Z,10.48
2019-05-14T07:01:31.810Z,10.67
2019-05-14T07:02:31.839Z,10.67
2019-05-14T07:03:31.827Z,10.79
2019-05-14T07:04:31.836Z,10.91
2019-05-14T07:05:31.850Z,10.99
2019-05-14T07:06:31.931Z,10.97
2019-05-14T07:07:31.878Z,11.02
2019-05-14T07:08:31.886Z,11.07
2019-05-14T07:09:31.923Z,11.09
2019-05-14T07:10:31.926Z,11.24
2019-05-14T07:11:31.935Z,11.33
2019-05-14T07:12:31.945Z,11.33
2019-05-14T07:13:31.964Z,11.35
2019-05-14T07:14:31.976Z,11.44
2019-05-14T07:15:32.006Z,11.55
2019-05-14T07:16:32.001Z,11.43
2019-05-14T07:17:32.051Z,11.43
2019-05-14T07:18:45.728Z,11.42
2019-05-14T07:19:32.048Z,11.49
2019-05-14T07:20:32.060Z,11.54
2019-05-14T07:21:32.074Z,11.62
2019-05-14T07:22:32.088Z,11.69
2019-05-14T07:23:32.113Z,11.67
2019-05-14T07:24:32.122Z,11.75
2019-05-14T07:25:32.130Z,11.76
2019-05-14T07:26:32.154Z,11.73
2019-05-14T07:27:32.162Z,11.64
2019-05-14T07:28:32.170Z,11.64
2019-05-14T07:29:32.188Z,11.72
2019-05-14T07:30:32.205Z,11.67
2019-05-14T07:31:32.222Z,11.64
2019-05-14T07:32:32.242Z,11.70
2019-05-14T07:33:32.959Z,11.75
2019-05-14T07:35:32.380Z,11.94
2019-05-14T07:36:32.827Z,11.94
2019-05-14T07:37:32.592Z,11.95
2019-05-14T07:38:32.914Z,11.90
2019-05-14T07:39:32.335Z,11.98
2019-05-14T07:40:32.521Z,12.07
2019-05-14T07:41:33.010Z,12.10
2019-05-14T07:43:32.510Z,12.23
2019-05-14T07:44:32.399Z,12.20
2019-05-14T07:45:33.404Z,12.21
2019-05-14T07:46:32.506Z,12.17
2019-05-14T07:47:32.455Z,12.24
2019-05-14T07:48:32.462Z,12.20
2019-05-14T07:49:32.475Z,12.23
2019-05-14T07:51:33.622Z,12.16
2019-05-14T07:52:32.519Z,12.23
2019-05-14T07:53:38.758Z,12.20
2019-05-14T07:54:32.554Z,12.17
2019-05-14T07:55:32.611Z,12.17
2019-05-14T07:56:32.573Z,12.28
2019-05-14T07:57:32.601Z,12.45
2019-05-14T07:58:32.615Z,12.49
2019-05-14T07:59:32.618Z,12.52
2019-05-14T08:00:32.638Z,12.50
2019-05-14T08:01:32.660Z,12.50
2019-05-14T08:02:32.686Z,12.50
2019-05-14T08:03:32.677Z,12.50
2019-05-14T08:04:32.711Z,12.52
2019-05-14T08:05:32.713Z,12.53
2019-05-14T08:06:32.721Z,12.50
2019-05-14T08:07:32.743Z,12.62
2019-05-14T08:08:32.746Z,12.62
2019-05-14T08:09:32.772Z,12.60
2019-05-14T08:10:32.780Z,12.64
2019-05-14T08:11:32.818Z,12.60
2019-05-14T08:12:32.805Z,12.60
2019-05-14T08:13:32.825Z,12.56
2019-05-14T08:14:41.816Z,12.65
2019-05-14T08:15:32.856Z,12.67
2019-05-14T08:16:32.898Z,12.72
2019-05-14T08:17:32.887Z,12.75
2019-05-14T08:18:32.897Z,12.75
2019-05-14T08:19:34.478Z,12.78
2019-05-14T08:20:32.930Z,12.83
2019-05-14T08:21:32.955Z,12.95
2019-05-14T08:22:32.950Z,12.92
2019-05-14T08:23:32.973Z,12.86
2019-05-14T08:24:33.118Z,12.87
2019-05-14T08:25:33.131Z,12.96
2019-05-14T08:26:33.012Z,12.97
2019-05-14T08:27:33.030Z,12.93
2019-05-14T08:28:33.045Z,13.05
2019-05-14T08:29:33.059Z,13.12
2019-05-14T08:30:33.072Z,13.20
2019-05-14T08:31:33.079Z,13.30
2019-05-14T08:32:33.094Z,13.39
2019-05-14T08:33:33.113Z,13.30
2019-05-14T08:34:33.125Z,13.19
2019-05-14T08:35:35.126Z,13.29
2019-05-14T08:36:33.153Z,13.29
2019-05-14T08:37:33.168Z,13.33
2019-05-14T08:38:33.202Z,13.42
2019-05-14T08:39:33.197Z,13.44
2019-05-14T08:40:33.214Z,13.38
2019-05-14T08:41:33.236Z,13.36
2019-05-14T08:42:34.380Z,13.29
2019-05-14T08:43:33.261Z,13.44
2019-05-14T08:44:33.296Z,13.60
2019-05-14T08:45:33.286Z,13.70
2019-05-14T08:46:33.312Z,13.85
2019-05-14T08:48:21.889Z,13.91
2019-05-14T08:49:36.205Z,14.06
2019-05-14T08:50:21.927Z,14.17
2019-05-14T08:51:21.935Z,14.35
2019-05-14T08:52:21.947Z,14.36
2019-05-14T08:53:21.962Z,14.55
2019-05-14T08:54:21.974Z,14.62
2019-05-14T08:55:21.984Z,14.64
2019-05-14T08:56:22.010Z,14.58
2019-05-14T08:57:22.111Z,14.72
2019-05-14T08:58:22.076Z,14.70
2019-05-14T08:59:22.321Z,14.61
2019-05-14T09:00:22.074Z,14.58
2019-05-14T09:01:22.104Z,14.39
2019-05-14T09:02:22.173Z,14.39
2019-05-14T09:03:22.218Z,14.29
2019-05-14T09:04:22.962Z,14.18
2019-05-14T09:05:22.137Z,14.29
2019-05-14T09:06:22.159Z,14.39
2019-05-14T09:07:22.167Z,14.35
2019-05-14T09:08:22.211Z,14.36
2019-05-14T09:09:22.402Z,14.28
2019-05-14T09:10:22.212Z,14.10
2019-05-14T09:11:25.507Z,14.15
2019-05-14T09:12:22.265Z,14.35
2019-05-14T09:13:22.279Z,14.36
2019-05-14T09:14:22.270Z,14.36
2019-05-14T09:15:22.289Z,14.28
2019-05-14T09:16:38.465Z,13.91
2019-05-14T09:17:22.317Z,13.73
2019-05-14T09:18:22.357Z,13.78
2019-05-14T09:19:22.349Z,13.79
2019-05-14T09:20:22.365Z,13.87
2019-05-14T09:21:22.382Z,13.88
2019-05-14T09:22:22.916Z,14.03
2019-05-14T09:23:23.292Z,14.07
2019-05-14T09:24:22.425Z,14.20
2019-05-14T09:25:22.439Z,14.12
2019-05-14T09:26:22.461Z,14.03
2019-05-14T09:27:22.467Z,14.07
2019-05-14T09:28:22.490Z,14.03
2019-05-14T09:29:26.058Z,13.95
2019-05-14T09:30:22.514Z,13.96
2019-05-14T09:31:22.530Z,14.12
2019-05-14T09:32:22.582Z,14.24
2019-05-14T09:33:24.297Z,14.35
2019-05-14T09:34:22.573Z,14.51
2019-05-14T09:35:22.593Z,14.57
2019-05-14T09:36:24.221Z,14.57
2019-05-14T09:37:22.624Z,14.62
2019-05-14T09:38:22.650Z,14.61
2019-05-14T09:39:22.675Z,14.51
2019-05-14T09:40:22.667Z,14.39
2019-05-14T09:41:22.692Z,14.18
2019-05-14T09:42:22.699Z,14.35
2019-05-14T09:43:22.724Z,14.35
2019-05-14T09:44:22.729Z,14.51
2019-05-14T09:45:22.739Z,14.46
2019-05-14T09:46:22.762Z,14.47
2019-05-14T09:47:22.769Z,14.46
2019-05-14T09:48:22.787Z,14.39
2019-05-14T09:49:22.804Z,14.35
2019-05-14T09:50:23.716Z,14.33
2019-05-14T09:51:22.841Z,14.35
2019-05-14T09:52:23.396Z,14.27
2019-05-14T09:53:22.959Z,14.36
2019-05-14T09:54:22.884Z,14.28
2019-05-14T09:55:22.892Z,14.50
2019-05-14T09:56:22.909Z,14.73
2019-05-14T09:57:23.136Z,14.83
2019-05-14T09:58:22.947Z,15.02
2019-05-14T09:59:22.962Z,15.09
2019-05-14T10:00:22.968Z,15.02
2019-05-14T10:01:23.164Z,14.94
2019-05-14T10:02:23.648Z,15.01
2019-05-14T10:03:23.018Z,14.89
2019-05-14T10:04:23.551Z,14.86
2019-05-14T10:05:23.191Z,14.81
2019-05-14T10:06:23.084Z,14.72
2019-05-14T10:07:23.070Z,14.65
2019-05-14T10:08:23.114Z,14.65
2019-05-14T10:09:23.112Z,14.55
2019-05-14T10:10:23.138Z,14.61
2019-05-14T10:11:23.329Z,14.52
2019-05-14T10:12:23.165Z,14.50
2019-05-14T10:13:23.207Z,14.58
2019-05-14T10:14:23.203Z,14.77
2019-05-14T10:15:23.203Z,14.89
2019-05-14T10:16:23.224Z,14.83
2019-05-14T10:17:23.227Z,14.88
2019-05-14T10:18:23.244Z,15.03
2019-05-14T10:19:23.270Z,15.11
2019-05-14T10:20:36.399Z,15.11
2019-05-14T10:21:23.285Z,14.98
2019-05-14T10:22:23.302Z,14.95
2019-05-14T10:23:23.310Z,14.98
2019-05-14T10:24:23.331Z,14.96
2019-05-14T10:25:23.340Z,15.06
2019-05-14T10:26:23.360Z,15.13
2019-05-14T10:27:23.385Z,15.14
2019-05-14T10:28:23.464Z,15.17
2019-05-14T10:29:23.401Z,15.29
2019-05-14T10:30:23.432Z,15.34
2019-05-14T10:31:23.444Z,15.23
2019-05-14T10:32:23.451Z,15.17
2019-05-14T10:33:23.468Z,15.11
2019-05-14T10:34:23.478Z,15.09
2019-05-14T10:35:39.046Z,15.06
2019-05-14T10:36:23.516Z,15.17
2019-05-14T10:37:23.530Z,15.13
2019-05-14T10:38:23.565Z,14.99
2019-05-14T10:39:23.553Z,15.02
2019-05-14T10:40:23.584Z,15.10
2019-05-14T10:41:23.587Z,15.20
2019-05-14T10:42:23.602Z,15.36
2019-05-14T10:43:23.627Z,15.44
2019-05-14T10:44:23.629Z,15.64
2019-05-14T10:46:23.818Z,15.74
2019-05-14T10:47:23.684Z,15.57
2019-05-14T10:48:23.904Z,15.49
2019-05-14T10:49:23.955Z,15.32
2019-05-14T10:50:23.730Z,15.21
2019-05-14T10:51:23.739Z,15.47
2019-05-14T10:52:23.764Z,15.59
2019-05-14T10:53:23.768Z,15.57
2019-05-14T10:54:25.763Z,15.74
2019-05-14T10:55:23.798Z,15.83
2019-05-14T10:56:23.907Z,15.84
2019-05-14T10:57:23.856Z,16.04
2019-05-14T10:58:23.849Z,16.12
2019-05-14T10:59:23.864Z,16.12
2019-05-14T11:00:23.870Z,16.07
2019-05-14T11:01:23.884Z,16.05
2019-05-14T11:02:23.903Z,15.92
2019-05-14T11:03:23.928Z,15.76
2019-05-14T11:04:24.681Z,15.76
2019-05-14T11:05:24.889Z,15.75
2019-05-14T11:06:23.968Z,15.34
2019-05-14T11:08:23.992Z,15.20
2019-05-14T11:09:23.998Z,15.19
2019-05-14T11:10:24.035Z,15.35
2019-05-14T11:11:24.030Z,15.46
2019-05-14T11:12:24.045Z,15.51
2019-05-14T11:13:24.057Z,15.65
2019-05-14T11:14:24.075Z,15.75
2019-05-14T11:15:24.094Z,15.62
2019-05-14T11:16:24.104Z,15.76
2019-05-14T11:17:24.128Z,15.96
2019-05-14T11:18:24.135Z,16.08
2019-05-14T11:19:24.151Z,15.92
2019-05-14T11:20:24.178Z,15.90
2019-05-14T11:21:26.859Z,15.75
2019-05-14T11:22:24.198Z,15.86
2019-05-14T11:23:24.210Z,16.04
2019-05-14T11:24:24.229Z,16.20
2019-05-14T11:25:24.247Z,16.28
2019-05-14T11:26:24.929Z,16.31
2019-05-14T11:27:24.267Z,16.42
2019-05-14T11:28:24.282Z,16.56
2019-05-14T11:29:24.310Z,16.82
2019-05-14T11:30:24.319Z,17.00
2019-05-14T11:31:24.339Z,17.30
2019-05-14T11:32:24.352Z,17.38
2019-05-14T11:33:24.361Z,17.37
2019-05-14T11:34:24.382Z,17.38
2019-05-14T11:35:24.393Z,17.41
2019-05-14T11:36:24.411Z,17.44
2019-05-14T11:37:24.423Z,17.49
2019-05-14T11:38:33.632Z,17.66
2019-05-14T11:39:24.455Z,17.71
2019-05-14T11:40:24.468Z,17.75
2019-05-14T11:41:24.493Z,17.71
2019-05-14T11:42:24.528Z,17.86
2019-05-14T11:43:24.521Z,17.81
2019-05-14T11:44:24.531Z,17.81
2019-05-14T11:45:24.552Z,17.77
2019-05-14T11:46:39.421Z,17.55
2019-05-14T11:47:24.580Z,16.89
2019-05-14T11:48:24.595Z,16.23
2019-05-14T11:49:24.610Z,15.87
2019-05-14T11:50:24.634Z,15.82
2019-05-14T11:51:56.217Z,16.07
2019-05-14T11:52:24.655Z,16.34
2019-05-14T11:53:24.675Z,16.63
2019-05-14T11:54:24.691Z,16.76
2019-05-14T11:55:24.700Z,16.91
2019-05-14T11:56:24.714Z,17.04
2019-05-14T11:57:24.735Z,17.22
2019-05-14T11:58:24.755Z,17.22
2019-05-14T11:59:24.765Z,17.30
2019-05-14T12:00:26.087Z,17.44
2019-05-14T12:01:24.798Z,17.34
2019-05-14T12:02:24.825Z,17.34
2019-05-14T12:03:24.825Z,17.52
2019-05-14T12:04:24.839Z,17.34
2019-05-14T12:05:24.859Z,17.06
2019-05-14T12:06:24.899Z,17.03
2019-05-14T12:07:24.892Z,17.23
2019-05-14T12:08:24.902Z,17.40
2019-05-14T12:09:24.920Z,17.74
2019-05-14T12:10:24.944Z,17.84
2019-05-14T12:11:25.155Z,17.84
2019-05-14T12:12:24.992Z,17.90
2019-05-14T12:13:27.226Z,17.78
2019-05-14T12:14:24.999Z,17.81
2019-05-14T12:15:25.018Z,17.92
2019-05-14T12:16:25.043Z,18.02
2019-05-14T12:17:25.048Z,18.11
2019-05-14T12:18:25.068Z,18.10
2019-05-14T12:19:25.093Z,18.21
2019-05-14T12:20:25.101Z,18.08
2019-05-14T12:21:28.817Z,18.26
2019-05-14T12:22:25.122Z,18.25
2019-05-14T12:23:25.537Z,18.11
2019-05-14T12:25:38.793Z,18.42
2019-05-14T12:26:38.861Z,18.60
2019-05-14T12:27:39.081Z,18.33
2019-05-14T12:28:38.969Z,18.36
2019-05-14T12:29:39.837Z,18.44
2019-05-14T12:30:39.543Z,18.39
2019-05-14T12:31:38.869Z,18.65
2019-05-14T12:32:40.026Z,18.57
2019-05-14T12:33:39.844Z,18.54
2019-05-14T12:34:39.006Z,18.55
2019-05-14T12:35:40.229Z,18.52
2019-05-14T12:36:39.070Z,18.51
2019-05-14T12:37:39.196Z,18.62
2019-05-14T12:38:38.988Z,18.87
2019-05-14T12:39:38.997Z,18.72
2019-05-14T12:40:39.005Z,18.70
2019-05-14T12:41:39.029Z,18.60
2019-05-14T12:42:39.609Z,18.55
2019-05-14T12:43:40.152Z,18.35
2019-05-14T12:44:40.827Z,18.50
2019-05-14T12:45:39.429Z,18.76
2019-05-14T12:46:39.106Z,18.73
2019-05-14T12:47:39.126Z,18.84
2019-05-14T12:48:39.262Z,18.99
2019-05-14T12:49:39.151Z,19.23
2019-05-14T12:50:39.503Z,19.32
2019-05-14T12:51:42.428Z,19.32
2019-05-14T12:52:39.266Z,19.28
2019-05-14T12:53:39.669Z,18.81
2019-05-14T12:54:39.243Z,18.66
2019-05-14T12:55:40.164Z,18.72
2019-05-14T12:56:39.281Z,18.63
2019-05-14T12:57:39.849Z,18.75
2019-05-14T12:58:45.311Z,18.80
2019-05-14T13:00:39.631Z,18.94
2019-05-14T13:01:39.365Z,19.18
2019-05-14T13:02:39.405Z,19.39
2019-05-14T13:03:39.405Z,19.61
2019-05-14T13:04:39.430Z,19.84
2019-05-14T13:05:39.450Z,20.02
2019-05-14T13:06:40.103Z,20.11
2019-05-14T13:07:41.806Z,20.33
2019-05-14T13:08:39.564Z,20.38
2019-05-14T13:09:40.795Z,20.32
2019-05-14T13:10:39.556Z,20.24
2019-05-14T13:11:41.545Z,20.51
2019-05-14T13:12:39.597Z,20.76
2019-05-14T13:13:42.770Z,20.39
2019-05-14T13:14:39.790Z,20.17
2019-05-14T13:15:39.663Z,19.83
2019-05-14T13:17:40.139Z,18.80
2019-05-14T13:18:39.830Z,18.47
2019-05-14T13:19:40.146Z,18.12
2019-05-14T13:20:39.760Z,17.90